WEATHER DATA

YESTERDAY
Time Temp. Dewp. Hum. Bar. 1h Prec. 24h Prec.
00:02 16.8 11.7 72 1015.8 0.0000 0.0000
00:11 16.9 11.8 72 1015.8 0.0000 0.0000
00:22 16.6 11.3 71 1015.9 0.0000 0.0000
00:32 16.4 11.3 72 1015.9 0.0000 0.0000
00:42 16.1 11.1 72 1015.9 0.0000 0.0000
00:52 15.8 11 73 1015.9 0.0000 0.0000
01:02 15.5 10.7 73 1015.9 0.0000 0.0000
01:12 15.2 10.6 74 1015.9 0.0000 0.0000
01:22 14.8 10.2 74 1016 0.0000 0.0000
01:33 14.6 10.2 75 1016 0.0000 0.0000
01:42 14.5 10.3 76 1016.3 0.0000 0.0000
01:52 14.5 10.3 76 1016.3 0.0000 0.0000
02:02 14.6 10.4 76 1016.4 0.0000 0.0000
02:13 14.7 10.5 76 1016.4 0.0000 0.0000
02:22 14.7 10.5 76 1016.4 0.0000 0.0000
02:32 14.7 10.5 76 1016.4 0.0000 0.0000
02:43 14.5 10.3 76 1016.5 0.0000 0.0000
02:53 14.4 10.2 76 1016.5 0.0000 0.0000
03:03 14.3 10.1 76 1016.6 0.0000 0.0000
03:12 14.2 10 76 1016.5 0.0000 0.0000
03:23 14 10 77 1016.6 0.0000 0.0000
03:33 13.7 9.7 77 1016.7 0.0000 0.0000
03:43 13.6 9.6 77 1016.8 0.0000 0.0000
03:53 13.4 9.6 78 1016.7 0.0000 0.0000
04:03 13.2 9.5 78 1016.6 0.0000 0.0000
04:13 13.1 9.4 78 1016.6 0.0000 0.0000
04:23 13 9.3 78 1016.6 0.0000 0.0000
04:33 12.9 9.4 79 1016.5 0.0000 0.0000
04:43 12.8 9.3 79 1016.5 0.0000 0.0000
04:53 12.6 9.1 79 1016.5 0.0000 0.0000
05:04 12.4 8.9 79 1016.5 0.0000 0.0000
05:14 12.1 8.6 79 1016.5 0.0000 0.0000
05:23 12 8.7 80 1016.5 0.0000 0.0000
05:33 12.1 8.8 80 1016.5 0.0000 0.0000
05:44 12 8.7 80 1016.4 0.0000 0.0000
05:54 11.9 8.7 81 1016.5 0.0000 0.0000
06:03 11.9 8.7 81 1016.5 0.0000 0.0000
06:14 11.9 8.7 81 1016.6 0.0000 0.0000
06:24 12.1 8.9 81 1016.6 0.0000 0.0000
06:34 12.4 9.2 81 1016.7 0.0000 0.0000
06:44 12.7 9.5 81 1016.7 0.0000 0.0000
06:54 13 9.8 81 1016.7 0.0000 0.0000
07:04 13.6 10.4 81 1016.7 0.0000 0.0000
07:14 14 10.6 80 1016.8 0.0000 0.0000
07:25 14.3 10.9 80 1016.8 0.0000 0.0000
07:34 14.5 10.9 79 1016.8 0.0000 0.0000
07:44 14.7 11.1 79 1016.8 0.0000 0.0000
07:54 14.9 11.3 79 1016.8 0.0000 0.0000
08:05 15.2 11.4 78 1016.8 0.0000 0.0000
08:15 15.3 11.5 78 1016.8 0.0000 0.0000
08:24 15.4 11.4 77 1016.8 0.0000 0.0000
08:35 15.5 11.5 77 1016.8 0.0000 0.0000
08:45 15.4 11.4 77 1016.8 0.0000 0.0000
08:55 15.4 11.4 77 1016.7 0.0000 0.0000
09:05 15.6 11.6 77 1016.7 0.0000 0.0000
09:15 16 12.2 78 1016.7 0.0000 0.0000
09:25 16.3 12.3 77 1016.7 0.0000 0.0000
09:35 16.7 12.7 77 1016.7 0.0000 0.0000
09:45 17.2 13.1 77 1016.7 0.0000 0.0000
09:55 17.5 13.2 76 1016.7 0.0000 0.0000
10:05 17.6 13.1 75 1016.6 0.0000 0.0000
10:15 18 13.5 75 1016.5 0.0000 0.0000
10:26 18.3 13.8 75 1016.5 0.0000 0.0000
10:35 18.8 14.3 75 1016.4 0.0000 0.0000
10:45 19.3 14.6 74 1016.4 0.0000 0.0000
10:56 19.4 14.4 73 1016.4 0.0000 0.0000
11:06 19.6 14.6 73 1016.4 0.0000 0.0000
11:15 19.7 14.5 72 1016.4 0.0000 0.0000
11:26 20.1 14.9 72 1016.3 0.0000 0.0000
11:36 20.5 15.3 72 1016.3 0.0000 0.0000
11:46 21.1 15.6 71 1016.4 0.0000 0.0000
11:56 21 15.1 69 1016.5 0.0000 0.0000
12:06 21.2 15.3 69 1016.4 0.0000 0.0000
12:16 21.5 15.6 69 1016.3 0.0000 0.0000
12:26 21.8 15.6 68 1016.3 0.0000 0.0000
12:36 21.9 15.5 67 1016.1 0.0000 0.0000
12:46 22 15.6 67 1016.1 0.0000 0.0000
12:56 22.4 16 67 1016 0.0000 0.0000
13:06 22.6 15.7 65 1015.8 0.0000 0.0000
13:17 22.8 15.6 64 1015.7 0.0000 0.0000
13:26 23.1 15.7 63 1015.7 0.0000 0.0000
13:36 23.3 15.4 61 1015.7 0.0000 0.0000
13:47 23.5 15.3 60 1015.5 0.0000 0.0000
13:57 23.8 15.6 60 1015.5 0.0000 0.0000
14:07 24 15.5 59 1015.3 0.0000 0.0000
14:16 24.1 15.3 58 1015.2 0.0000 0.0000
14:27 24.3 15.5 58 1015.2 0.0000 0.0000
14:37 24.5 15.4 57 1015.1 0.0000 0.0000
14:47 24.6 15 55 1015 0.0000 0.0000
14:57 24.6 15.2 56 1015 0.0000 0.0000
15:07 24.8 14.9 54 1014.9 0.0000 0.0000
15:17 25.1 15.4 55 1015 0.0000 0.0000
15:27 25.4 15.4 54 1015 0.0000 0.0000
15:38 25.4 15.1 53 1014.9 0.0000 0.0000
15:47 25.6 15 52 1014.9 0.0000 0.0000
16:08 25.8 14.9 51 1014.8 0.0000 0.0000
16:18 25.8 14.6 50 1014.7 0.0000 0.0000
16:28 25.9 14.4 49 1014.7 0.0000 0.0000
16:37 25.8 13.6 47 1014.7 0.0000 0.0000
16:48 25.8 13.6 47 1014.7 0.0000 0.0000
16:58 26 13.5 46 1014.5 0.0000 0.0000
17:08 26.1 13.2 45 1014.4 0.0000 0.0000
17:18 26.1 12.6 43 1014.4 0.0000 0.0000
17:28 26 12.1 42 1014.3 0.0000 0.0000
17:38 26.1 12.2 42 1014.3 0.0000 0.0000
17:48 26.2 11.9 41 1014.2 0.0000 0.0000
17:59 26.1 11.1 39 1014.1 0.0000 0.0000
18:08 26.2 10.8 38 1014.1 0.0000 0.0000
18:18 26.3 11.3 39 1014.1 0.0000 0.0000
18:28 26.2 11.5 40 1014.1 0.0000 0.0000
18:39 26.3 12 41 1014.1 0.0000 0.0000
18:49 26.4 12.1 41 1014 0.0000 0.0000
18:58 26.2 11.9 41 1014 0.0000 0.0000
19:09 26.1 11.8 41 1014 0.0000 0.0000
19:19 26.1 12.2 42 1014 0.0000 0.0000
19:29 26.5 12.9 43 1014 0.0000 0.0000
19:39 27.6 14.3 44 1014 0.0000 0.0000
19:49 28.2 14.4 43 1014 0.0000 0.0000
19:59 28 13.9 42 1014 0.0000 0.0000
20:09 27.8 14.1 43 1014.1 0.0000 0.0000
20:20 27.3 14 44 1014.1 0.0000 0.0000
20:30 26.5 13.6 45 1014.1 0.0000 0.0000
20:39 25.7 12.9 45 1014.1 0.0000 0.0000
20:49 24.6 12.6 47 1014.1 0.0000 0.0000
21:00 23.8 12.1 48 1014.2 0.0000 0.0000
21:10 23.1 12.1 50 1014.2 0.0000 0.0000
21:19 22.5 12.2 52 1014.2 0.0000 0.0000
21:30 21.9 12.2 54 1014.2 0.0000 0.0000
21:40 21.3 11.9 55 1014.2 0.0000 0.0000
21:50 20.9 12.1 57 1014.3 0.0000 0.0000
22:00 20.5 12 58 1014.3 0.0000 0.0000
22:10 20.2 11.9 59 1014.4 0.0000 0.0000
22:20 19.8 11.8 60 1014.5 0.0000 0.0000
22:30 19.3 11.6 61 1014.5 0.0000 0.0000
22:41 19.1 11.7 62 1014.5 0.0000 0.0000
22:51 19.1 11.7 62 1014.5 0.0000 0.0000
23:00 19.2 12 63 1014.5 0.0000 0.0000
23:10 19.3 11.8 62 1014.5 0.0000 0.0000
23:21 19 11.8 63 1014.6 0.0000 0.0000
23:31 18.9 11.7 63 1014.6 0.0000 0.0000
23:41 18.5 11.3 63 1014.5 0.0000 0.0000
23:51 18.2 11.3 64 1014.6 0.0000 0.0000

DAY STATISTIC

2019-07-16
TEMPERATURE
AVERAGE
19.5
HIGH
28.2
19:49
LOW
11.9
05:54
PRESSURE
AVERAGE
1015.6
HIGH
1016.8
03:43
LOW
1014.0
18:49
DEWPOINT
AVERAGE
12.3
HIGH
16.0
12:56
LOW
8.6
05:14
HUMIDITY
AVERAGE
65
HIGH
81
05:54
LOW
38
18:08
PRECIPITATION
RAIN HOUR
0.0
RAIN DAY
0.0
TEMPERATURE (°C)
LOW
11.9
HIGH
28.2
AVERAGE
19.5
PRESSURE (hpa)
LOW
1014.0
HIGH
1016.8
AVERAGE
1015.6
DEVICE